Time,TemperatureF,DewpointF,PressureIn,WindDirection,WindDirectionDegrees,WindSpeedMPH,WindSpeedGustMPH,Humidity,HourlyPrecipIn,Conditions,Clouds,dailyrainin,SolarRadiationWatts/m^2,SoftwareType,DateUTC
2013-05-21 00:13:00,69.0,-28.0,-100.00,SSE,157,1.0,5.0,0,0.00,,,0.37,105.000000,,2013-05-21 04:13:00,
2013-05-21 00:23:00,69.0,-28.0,-100.00,SSE,157,1.0,5.0,0,0.00,,,0.37,105.000000,,2013-05-21 04:23:00,
2013-05-21 00:33:00,69.0,-28.0,-100.00,SSE,157,1.0,5.0,0,0.00,,,0.37,105.000000,,2013-05-21 04:33:00,
2013-05-21 00:42:00,69.0,-28.0,-100.00,SSE,157,1.0,5.0,0,0.00,,,0.37,105.000000,,2013-05-21 04:42:00,
2013-05-21 00:51:00,66.0,-29.0,-100.00,ESE,113,1.0,3.0,0,0.00,,,0.37,55.000000,,2013-05-21 04:51:00,
2013-05-21 01:12:00,66.0,-29.0,-100.00,ESE,113,1.0,3.0,0,0.00,,,0.37,55.000000,,2013-05-21 05:12:00,
2013-05-21 01:21:00,66.0,-29.0,-100.00,ESE,113,1.0,3.0,0,0.00,,,0.37,55.000000,,2013-05-21 05:21:00,
2013-05-21 01:32:00,66.0,-29.0,-100.00,ESE,113,1.0,3.0,0,0.00,,,0.37,55.000000,,2013-05-21 05:32:00,
2013-05-21 01:42:00,66.0,-29.0,-100.00,ESE,113,1.0,3.0,0,0.00,,,0.37,55.000000,,2013-05-21 05:42:00,
2013-05-21 01:51:00,63.0,-31.0,-100.00,ESE,118,0.0,0.0,0,0.00,,,-99.99,3.000000,,2013-05-21 05:51:00,
2013-05-21 02:12:00,63.0,-31.0,-100.00,ESE,118,0.0,0.0,0,0.00,,,-99.99,3.000000,,2013-05-21 06:12:00,
2013-05-21 02:21:00,63.0,-31.0,-100.00,ESE,118,0.0,0.0,0,0.00,,,-99.99,3.000000,,2013-05-21 06:21:00,
2013-05-21 02:32:00,63.0,-31.0,-100.00,ESE,118,0.0,0.0,0,0.00,,,-99.99,3.000000,,2013-05-21 06:32:00,
2013-05-21 02:41:00,63.0,-31.0,-100.00,ESE,118,0.0,0.0,0,0.00,,,-99.99,3.000000,,2013-05-21 06:41:00,
2013-05-21 02:51:00,62.0,-32.0,-100.00,South,186,0.0,0.0,0,0.00,,,0.09,0.000000,,2013-05-21 06:51:00,
2013-05-21 03:11:00,62.0,-32.0,-100.00,South,186,0.0,0.0,0,0.00,,,0.09,0.000000,,2013-05-21 07:11:00,
2013-05-21 03:21:00,62.0,-32.0,-100.00,South,186,0.0,0.0,0,0.00,,,0.09,0.000000,,2013-05-21 07:21:00,
2013-05-21 03:31:00,62.0,-32.0,-100.00,South,186,0.0,0.0,0,0.00,,,0.09,0.000000,,2013-05-21 07:31:00,
2013-05-21 03:41:00,62.0,-32.0,-100.00,South,186,0.0,0.0,0,0.00,,,0.09,0.000000,,2013-05-21 07:41:00,
2013-05-21 03:51:00,61.0,-33.0,-100.00,SSW,195,0.0,0.0,0,0.00,,,0.06,0.000000,,2013-05-21 07:51:00,
2013-05-21 04:21:00,61.0,-33.0,-100.00,SSW,195,0.0,0.0,0,0.00,,,0.06,0.000000,,2013-05-21 08:21:00,
2013-05-21 04:31:00,61.0,-33.0,-100.00,SSW,195,0.0,0.0,0,0.00,,,0.06,0.000000,,2013-05-21 08:31:00,
2013-05-21 04:41:00,61.0,-33.0,-100.00,SSW,195,0.0,0.0,0,0.00,,,0.06,0.000000,,2013-05-21 08:41:00,
2013-05-21 04:51:00,61.0,-33.0,-100.00,SSW,196,0.0,0.0,0,0.00,,,0.01,0.000000,,2013-05-21 08:51:00,
2013-05-21 05:11:00,61.0,-33.0,-100.00,SSW,196,0.0,0.0,0,0.00,,,0.01,0.000000,,2013-05-21 09:11:00,
2013-05-21 05:21:00,61.0,-33.0,-100.00,SSW,196,0.0,0.0,0,0.00,,,0.01,0.000000,,2013-05-21 09:21:00,
2013-05-21 05:32:00,61.0,-33.0,-100.00,SSW,196,0.0,0.0,0,0.00,,,0.01,0.000000,,2013-05-21 09:32:00,
2013-05-21 05:41:00,61.0,-33.0,-100.00,SSW,196,0.0,0.0,0,0.00,,,0.01,0.000000,,2013-05-21 09:41:00,
2013-05-21 05:51:00,61.0,-33.0,-100.00,SSW,196,0.0,0.0,0,0.00,,,0.01,0.000000,,2013-05-21 09:51:00,
2013-05-21 06:12:00,61.0,-33.0,-100.00,SSW,196,0.0,0.0,0,0.00,,,0.01,0.000000,,2013-05-21 10:12:00,
2013-05-21 06:22:00,61.0,-33.0,-100.00,SSW,196,0.0,0.0,0,0.00,,,0.01,0.000000,,2013-05-21 10:22:00,
2013-05-21 06:32:00,61.0,-33.0,-100.00,SSW,196,0.0,0.0,0,0.00,,,0.01,0.000000,,2013-05-21 10:32:00,
2013-05-21 06:41:00,61.0,-33.0,-100.00,SSW,196,0.0,0.0,0,0.00,,,0.01,0.000000,,2013-05-21 10:41:00,
2013-05-21 06:51:00,61.0,-33.0,-100.00,SSW,194,0.0,0.0,0,0.00,,,-99.99,0.000000,,2013-05-21 10:51:00,
2013-05-21 07:21:00,61.0,-33.0,-100.00,SSW,194,0.0,0.0,0,0.00,,,-99.99,0.000000,,2013-05-21 11:21:00,
2013-05-21 07:32:00,61.0,-33.0,-100.00,SSW,194,0.0,0.0,0,0.00,,,-99.99,0.000000,,2013-05-21 11:32:00,
2013-05-21 07:41:00,61.0,-33.0,-100.00,SSW,194,0.0,0.0,0,0.00,,,-99.99,0.000000,,2013-05-21 11:41:00,
2013-05-21 07:51:00,61.0,-33.0,-100.00,SSW,198,0.0,0.0,0,0.00,,,0.00,0.000000,,2013-05-21 11:51:00,
2013-05-21 08:21:00,61.0,-33.0,-100.00,SSW,198,0.0,0.0,0,0.00,,,0.00,0.000000,,2013-05-21 12:21:00,
2013-05-21 08:31:00,61.0,-33.0,-100.00,SSW,198,0.0,0.0,0,0.00,,,0.00,0.000000,,2013-05-21 12:31:00,
2013-05-21 08:41:00,61.0,-33.0,-100.00,SSW,198,0.0,0.0,0,0.00,,,0.00,0.000000,,2013-05-21 12:41:00,
2013-05-21 08:51:00,60.0,-33.0,-100.00,SSW,197,0.0,0.0,0,0.00,,,-99.99,0.000000,,2013-05-21 12:51:00,
2013-05-21 09:12:00,60.0,-33.0,-100.00,SSW,197,0.0,0.0,0,0.00,,,-99.99,0.000000,,2013-05-21 13:12:00,
2013-05-21 09:22:00,60.0,-33.0,-100.00,SSW,197,0.0,0.0,0,0.00,,,-99.99,0.000000,,2013-05-21 13:22:00,
2013-05-21 09:31:00,60.0,-33.0,-100.00,SSW,197,0.0,0.0,0,0.00,,,-99.99,0.000000,,2013-05-21 13:31:00,
2013-05-21 09:41:00,60.0,-33.0,-100.00,SSW,197,0.0,0.0,0,0.00,,,-99.99,0.000000,,2013-05-21 13:41:00,
2013-05-21 09:51:00,60.0,-33.0,-100.00,SSW,200,0.0,0.0,0,0.00,,,0.00,0.000000,,2013-05-21 13:51:00,
2013-05-21 10:11:00,60.0,-33.0,-100.00,SSW,200,0.0,0.0,0,0.00,,,0.00,0.000000,,2013-05-21 14:11:00,
2013-05-21 10:21:00,60.0,-33.0,-100.00,SSW,200,0.0,0.0,0,0.00,,,0.00,0.000000,,2013-05-21 14:21:00,
2013-05-21 10:31:00,60.0,-33.0,-100.00,SSW,200,0.0,0.0,0,0.00,,,0.00,0.000000,,2013-05-21 14:31:00,
2013-05-21 10:41:00,60.0,-33.0,-100.00,SSW,200,0.0,0.0,0,0.00,,,0.00,0.000000,,2013-05-21 14:41:00,
2013-05-21 10:51:00,60.0,-33.0,-100.00,SSW,203,0.0,0.0,0,0.00,,,0.00,0.000000,,2013-05-21 14:51:00,
2013-05-21 11:11:00,60.0,-33.0,-100.00,SSW,203,0.0,0.0,0,0.00,,,0.00,0.000000,,2013-05-21 15:11:00,
2013-05-21 11:21:00,60.0,-33.0,-100.00,SSW,203,0.0,0.0,0,0.00,,,0.00,0.000000,,2013-05-21 15:21:00,
2013-05-21 11:33:00,60.0,-33.0,-100.00,SSW,203,0.0,0.0,0,0.00,,,0.00,0.000000,,2013-05-21 15:33:00,
2013-05-21 11:42:00,60.0,-33.0,-100.00,SSW,203,0.0,0.0,0,0.00,,,0.00,0.000000,,2013-05-21 15:42:00,
2013-05-21 11:51:00,61.0,-33.0,-100.00,South,189,0.0,0.0,0,0.00,,,0.00,0.000000,,2013-05-21 15:51:00,
2013-05-21 12:23:00,61.0,-33.0,-100.00,South,189,0.0,0.0,0,0.00,,,0.00,0.000000,,2013-05-21 16:23:00,
2013-05-21 12:32:00,61.0,-33.0,-100.00,South,189,0.0,0.0,0,0.00,,,0.00,0.000000,,2013-05-21 16:32:00,
2013-05-21 12:42:00,61.0,-33.0,-100.00,South,189,0.0,0.0,0,0.00,,,0.00,0.000000,,2013-05-21 16:42:00,
2013-05-21 12:51:00,62.0,-32.0,-100.00,South,184,1.0,2.0,0,0.00,,,0.00,23.000000,,2013-05-21 16:51:00,
2013-05-21 13:12:00,62.0,-32.0,-100.00,South,184,1.0,2.0,0,0.00,,,0.00,23.000000,,2013-05-21 17:12:00,
2013-05-21 13:23:00,62.0,-32.0,-100.00,South,184,1.0,2.0,0,0.00,,,0.00,23.000000,,2013-05-21 17:23:00,
2013-05-21 13:32:00,62.0,-32.0,-100.00,South,184,1.0,2.0,0,0.00,,,0.00,23.000000,,2013-05-21 17:32:00,
2013-05-21 13:43:00,62.0,-32.0,-100.00,South,184,1.0,2.0,0,0.00,,,0.00,23.000000,,2013-05-21 17:43:00,
2013-05-21 13:51:00,66.0,-29.0,-100.00,SW,218,0.0,4.0,0,0.00,,,0.00,119.000000,,2013-05-21 17:51:00,
2013-05-21 14:12:00,66.0,-29.0,-100.00,SW,218,0.0,4.0,0,0.00,,,0.00,119.000000,,2013-05-21 18:12:00,
2013-05-21 14:22:00,66.0,-29.0,-100.00,SW,218,0.0,4.0,0,0.00,,,0.00,119.000000,,2013-05-21 18:22:00,
2013-05-21 14:32:00,66.0,-29.0,-100.00,SW,218,0.0,4.0,0,0.00,,,0.00,119.000000,,2013-05-21 18:32:00,
2013-05-21 14:42:00,66.0,-29.0,-100.00,SW,218,0.0,4.0,0,0.00,,,0.00,119.000000,,2013-05-21 18:42:00,
2013-05-21 14:51:00,70.0,-27.0,-100.00,South,173,1.0,3.0,0,0.00,,,0.00,290.000000,,2013-05-21 18:51:00,
2013-05-21 15:11:00,70.0,-27.0,-100.00,South,173,1.0,3.0,0,0.00,,,0.00,290.000000,,2013-05-21 19:11:00,
2013-05-21 15:21:00,70.0,-27.0,-100.00,South,173,1.0,3.0,0,0.00,,,0.00,290.000000,,2013-05-21 19:21:00,
2013-05-21 15:31:00,70.0,-27.0,-100.00,South,173,1.0,3.0,0,0.00,,,0.00,290.000000,,2013-05-21 19:31:00,
2013-05-21 15:41:00,70.0,-27.0,-100.00,South,173,1.0,3.0,0,0.00,,,0.00,290.000000,,2013-05-21 19:41:00,
2013-05-21 15:51:00,74.0,-25.0,-100.00,WNW,288,2.0,7.0,0,0.00,,,0.00,604.000000,,2013-05-21 19:51:00,
2013-05-21 16:11:00,74.0,-25.0,-100.00,WNW,288,2.0,7.0,0,0.00,,,0.00,604.000000,,2013-05-21 20:11:00,
2013-05-21 16:22:00,74.0,-25.0,-100.00,WNW,288,2.0,7.0,0,0.00,,,0.00,604.000000,,2013-05-21 20:22:00,
2013-05-21 16:32:00,74.0,-25.0,-100.00,WNW,288,2.0,7.0,0,0.00,,,0.00,604.000000,,2013-05-21 20:32:00,
2013-05-21 16:42:00,74.0,-25.0,-100.00,WNW,288,2.0,7.0,0,0.00,,,0.00,604.000000,,2013-05-21 20:42:00,
2013-05-21 16:51:00,78.0,-22.0,-100.00,NW,319,2.0,9.0,0,0.00,,,0.00,800.000000,,2013-05-21 20:51:00,
2013-05-21 17:11:00,78.0,-22.0,-100.00,NW,319,2.0,9.0,0,0.00,,,0.00,800.000000,,2013-05-21 21:11:00,
2013-05-21 17:21:00,78.0,-22.0,-100.00,NW,319,2.0,9.0,0,0.00,,,0.00,800.000000,,2013-05-21 21:21:00,
2013-05-21 17:32:00,78.0,-22.0,-100.00,NW,319,2.0,9.0,0,0.00,,,0.00,800.000000,,2013-05-21 21:32:00,
2013-05-21 17:43:00,78.0,-22.0,-100.00,NW,319,2.0,9.0,0,0.00,,,0.00,800.000000,,2013-05-21 21:43:00,
2013-05-21 17:51:00,79.0,-21.0,-100.00,WNW,301,3.0,9.0,0,0.00,,,0.00,914.000000,,2013-05-21 21:51:00,
2013-05-21 18:12:00,79.0,-21.0,-100.00,WNW,301,3.0,9.0,0,0.00,,,0.00,914.000000,,2013-05-21 22:12:00,
2013-05-21 18:22:00,79.0,-21.0,-100.00,WNW,301,3.0,9.0,0,0.00,,,0.00,914.000000,,2013-05-21 22:22:00,
2013-05-21 18:33:00,79.0,-21.0,-100.00,WNW,301,3.0,9.0,0,0.00,,,0.00,914.000000,,2013-05-21 22:33:00,
2013-05-21 18:41:00,79.0,-21.0,-100.00,WNW,301,3.0,9.0,0,0.00,,,0.00,914.000000,,2013-05-21 22:41:00,
2013-05-21 18:51:00,80.0,-21.0,-100.00,NE,39,3.0,6.0,0,0.00,,,0.00,936.000000,,2013-05-21 22:51:00,
2013-05-21 19:12:00,80.0,-21.0,-100.00,NE,39,3.0,6.0,0,0.00,,,0.00,936.000000,,2013-05-21 23:12:00,
2013-05-21 19:22:00,80.0,-21.0,-100.00,NE,39,3.0,6.0,0,0.00,,,0.00,936.000000,,2013-05-21 23:22:00,
2013-05-21 19:32:00,80.0,-21.0,-100.00,NE,39,3.0,6.0,0,0.00,,,0.00,936.000000,,2013-05-21 23:32:00,
2013-05-21 19:42:00,80.0,-21.0,-100.00,NE,39,3.0,6.0,0,0.00,,,0.00,936.000000,,2013-05-21 23:42:00,
2013-05-21 19:51:00,81.0,-20.0,-100.00,NW,313,2.0,7.0,0,0.00,,,0.00,931.000000,,2013-05-21 23:51:00,
2013-05-21 20:11:00,81.0,-20.0,-100.00,NW,313,2.0,7.0,0,0.00,,,0.00,931.000000,,2013-05-22 00:11:00,
2013-05-21 20:21:00,81.0,-20.0,-100.00,NW,313,2.0,7.0,0,0.00,,,0.00,931.000000,,2013-05-22 00:21:00,
2013-05-21 20:31:00,81.0,-20.0,-100.00,NW,313,2.0,7.0,0,0.00,,,0.00,931.000000,,2013-05-22 00:31:00,
2013-05-21 20:41:00,81.0,-20.0,-100.00,NW,313,2.0,7.0,0,0.00,,,0.00,931.000000,,2013-05-22 00:41:00,
2013-05-21 20:51:00,80.0,-21.0,-100.00,WSW,241,3.0,10.0,0,0.00,,,0.00,815.000000,,2013-05-22 00:51:00,
2013-05-21 21:11:00,80.0,-21.0,-100.00,WSW,241,3.0,10.0,0,0.00,,,0.00,815.000000,,2013-05-22 01:11:00,
2013-05-21 21:21:00,80.0,-21.0,-100.00,WSW,241,3.0,10.0,0,0.00,,,0.00,815.000000,,2013-05-22 01:21:00,
2013-05-21 21:32:00,80.0,-21.0,-100.00,WSW,241,3.0,10.0,0,0.00,,,0.00,815.000000,,2013-05-22 01:32:00,
2013-05-21 21:41:00,80.0,-21.0,-100.00,WSW,241,3.0,10.0,0,0.00,,,0.00,815.000000,,2013-05-22 01:41:00,
2013-05-21 21:51:00,79.0,-21.0,-100.00,WSW,245,2.0,7.0,0,0.00,,,0.00,679.000000,,2013-05-22 01:51:00,
2013-05-21 22:11:00,79.0,-21.0,-100.00,WSW,245,2.0,7.0,0,0.00,,,0.00,679.000000,,2013-05-22 02:11:00,
2013-05-21 22:21:00,79.0,-21.0,-100.00,WSW,245,2.0,7.0,0,0.00,,,0.00,679.000000,,2013-05-22 02:21:00,
2013-05-21 22:32:00,79.0,-21.0,-100.00,WSW,245,2.0,7.0,0,0.00,,,0.00,679.000000,,2013-05-22 02:32:00,
2013-05-21 22:41:00,79.0,-21.0,-100.00,WSW,245,2.0,7.0,0,0.00,,,0.00,679.000000,,2013-05-22 02:41:00,
2013-05-21 22:51:00,78.0,-22.0,-100.00,WNW,283,2.0,9.0,0,0.00,,,0.00,592.000000,,2013-05-22 02:51:00,
2013-05-21 23:11:00,78.0,-22.0,-100.00,WNW,283,2.0,9.0,0,0.00,,,0.00,592.000000,,2013-05-22 03:11:00,
2013-05-21 23:21:00,78.0,-22.0,-100.00,WNW,283,2.0,9.0,0,0.00,,,0.00,592.000000,,2013-05-22 03:21:00,
2013-05-21 23:33:00,78.0,-22.0,-100.00,WNW,283,2.0,9.0,0,0.00,,,0.00,592.000000,,2013-05-22 03:33:00,
2013-05-21 23:43:00,78.0,-22.0,-100.00,WNW,283,2.0,9.0,0,0.00,,,0.00,592.000000,,2013-05-22 03:43:00,
2013-05-21 23:51:00,73.0,-25.0,-100.00,SSW,194,1.0,6.0,0,0.00,,,0.00,174.000000,,2013-05-22 03:51:00,